createdAt,value
2022-10-17T00:01:34.775Z,100803.19
2022-10-17T00:06:37.266Z,100805.75
2022-10-17T00:11:39.530Z,100802.84
2022-10-17T00:16:41.116Z,100806.63
2022-10-17T00:21:42.670Z,100824.38
2022-10-17T00:26:44.240Z,100838.72
2022-10-17T00:31:45.832Z,100840.44
2022-10-17T00:36:47.565Z,100844.66
2022-10-17T00:41:49.264Z,100838.97
2022-10-17T00:46:50.817Z,100846.19
2022-10-17T00:51:57.447Z,100841.78
2022-10-17T00:56:59.580Z,100846.81
2022-10-17T01:02:11.645Z,100848.94
2022-10-17T01:07:13.311Z,100857.13
2022-10-17T01:12:18.869Z,100856.31
2022-10-17T01:17:50.760Z,100853.81
2022-10-17T01:23:07.440Z,100854.44
2022-10-17T01:28:30.296Z,100846.44
2022-10-17T01:33:53.261Z,100848.97
2022-10-17T01:39:02.511Z,100851.31
2022-10-17T01:44:10.441Z,100844.53
2022-10-17T01:49:17.366Z,100852.38
2022-10-17T01:54:25.748Z,100847.50
2022-10-17T01:59:37.278Z,100841.59
2022-10-17T02:04:41.295Z,100840.78
2022-10-17T02:09:43.047Z,100855.50
2022-10-17T02:15:02.875Z,100854.88
2022-10-17T02:20:26.776Z,100845.41
2022-10-17T02:25:45.492Z,100853.63
2022-10-17T02:31:02.096Z,100840.38
2022-10-17T02:36:08.950Z,100842.88
2022-10-17T02:41:15.620Z,100843.94
2022-10-17T02:46:23.172Z,100851.72
2022-10-17T02:51:42.297Z,100859.91
2022-10-17T02:56:52.907Z,100852.13
2022-10-17T03:01:54.755Z,100845.41
2022-10-17T03:06:56.441Z,100842.44
2022-10-17T03:11:58.227Z,100841.38
2022-10-17T03:17:00.460Z,100848.53
2022-10-17T03:22:02.322Z,100843.50
2022-10-17T03:27:05.511Z,100855.91
2022-10-17T03:32:07.163Z,100853.16
2022-10-17T03:37:09.513Z,100865.56
2022-10-17T03:42:13.544Z,100869.34
2022-10-17T03:47:15.251Z,100874.16
2022-10-17T03:52:16.943Z,100884.66
2022-10-17T03:57:19.649Z,100888.84
2022-10-17T04:02:21.830Z,100893.50
2022-10-17T04:07:24.575Z,100897.28
2022-10-17T04:12:26.424Z,100897.69
2022-10-17T04:17:35.754Z,100906.09
2022-10-17T04:22:40.115Z,100906.50
2022-10-17T04:27:41.897Z,100902.53
2022-10-17T04:32:43.662Z,100902.75
2022-10-17T04:37:55.431Z,100916.44
2022-10-17T04:42:57.228Z,100930.97
2022-10-17T04:48:06.859Z,100924.63
2022-10-17T04:53:09.044Z,100926.09
2022-10-17T04:58:10.873Z,100937.28
2022-10-17T05:03:13.156Z,100943.38
2022-10-17T05:08:15.168Z,100945.28
2022-10-17T05:13:16.804Z,100943.97
2022-10-17T05:18:18.671Z,100939.13
2022-10-17T05:23:20.470Z,100933.84
2022-10-17T05:28:22.784Z,100926.50
2022-10-17T05:33:26.388Z,100930.03
2022-10-17T05:38:28.639Z,100935.88
2022-10-17T05:43:31.881Z,100947.31
2022-10-17T05:48:34.370Z,100959.72
2022-10-17T05:53:38.993Z,100960.19
2022-10-17T05:58:50.257Z,100972.25
2022-10-17T06:04:07.839Z,100970.56
2022-10-17T06:09:10.020Z,100966.13
2022-10-17T06:14:14.636Z,100979.19
2022-10-17T06:19:17.402Z,100985.91
2022-10-17T06:24:20.871Z,100998.13
2022-10-17T06:29:22.835Z,100996.66
2022-10-17T06:34:27.323Z,100999.25
2022-10-17T06:39:33.854Z,101014.81
2022-10-17T06:44:42.792Z,101031.50
2022-10-17T06:50:07.221Z,101046.50
2022-10-17T06:55:21.467Z,101061.44
2022-10-17T07:00:42.801Z,101052.56
2022-10-17T07:05:52.192Z,101077.13
2022-10-17T07:10:56.690Z,101086.13
2022-10-17T07:16:01.711Z,101097.00
2022-10-17T07:21:06.126Z,101096.25
2022-10-17T07:26:11.469Z,101101.91
2022-10-17T07:31:17.703Z,101110.03
2022-10-17T07:36:20.381Z,101125.13
2022-10-17T07:41:26.015Z,101126.00
2022-10-17T07:46:28.242Z,101130.34
2022-10-17T07:51:30.374Z,101141.59
2022-10-17T07:56:33.478Z,101130.63
2022-10-17T08:01:35.108Z,101144.41
2022-10-17T08:06:36.967Z,101149.91
2022-10-17T08:11:38.916Z,101157.81
2022-10-17T08:16:41.128Z,101166.34
2022-10-17T08:21:44.919Z,101177.97
2022-10-17T08:26:49.597Z,101173.25
2022-10-17T08:32:00.863Z,101174.63
2022-10-17T08:37:03.836Z,101168.88
2022-10-17T08:42:05.422Z,101179.16
2022-10-17T08:47:14.777Z,101178.13
2022-10-17T08:52:29.855Z,101184.69
2022-10-17T08:57:31.820Z,101179.78
2022-10-17T09:03:11.903Z,101157.47
2022-10-17T09:08:20.459Z,101147.47
2022-10-17T09:13:57.287Z,101136.09
2022-10-17T09:19:21.494Z,101126.22
2022-10-17T09:24:39.127Z,101133.44
2022-10-17T09:29:43.842Z,101123.72
2022-10-17T09:34:45.661Z,101110.06
2022-10-17T09:39:47.943Z,101091.59
2022-10-17T09:44:56.876Z,101093.28
2022-10-17T09:49:58.496Z,101097.84
2022-10-17T09:55:02.676Z,101098.97
2022-10-17T10:00:06.474Z,101093.97
2022-10-17T10:05:19.015Z,101098.47
2022-10-17T10:10:27.918Z,101095.84
2022-10-17T10:15:37.034Z,101098.44
2022-10-17T10:20:38.713Z,101108.78
2022-10-17T10:26:02.796Z,101111.94
2022-10-17T10:31:07.672Z,101119.75
2022-10-17T10:36:09.907Z,101121.47
2022-10-17T10:41:11.856Z,101128.22
2022-10-17T10:46:23.606Z,101132.44
2022-10-17T10:51:47.939Z,101127.16
2022-10-17T10:56:53.622Z,101129.41
2022-10-17T11:02:10.732Z,101130.53
2022-10-17T11:07:24.659Z,101137.19
2022-10-17T11:12:39.210Z,101143.34
2022-10-17T11:17:52.764Z,101148.63
2022-10-17T11:23:01.600Z,101149.72
2022-10-17T11:28:10.264Z,101155.03
2022-10-17T11:33:20.383Z,101157.53
2022-10-17T11:38:24.972Z,101157.75
2022-10-17T11:43:35.272Z,101164.16
2022-10-17T11:48:46.029Z,101170.22
2022-10-17T11:53:47.575Z,101177.47
2022-10-17T11:59:24.428Z,101162.06
2022-10-17T12:04:56.235Z,101169.78
2022-10-17T12:10:39.192Z,101174.69
2022-10-17T12:15:44.677Z,101188.34
2022-10-17T12:20:58.684Z,101180.75
2022-10-17T12:26:04.675Z,101169.59
2022-10-17T12:31:23.023Z,101167.63
2022-10-17T12:36:27.268Z,101159.78
2022-10-17T12:41:37.961Z,101151.63
2022-10-17T12:46:44.360Z,101147.69
2022-10-17T12:52:22.367Z,101145.38
2022-10-17T12:57:47.327Z,101165.47
2022-10-17T13:02:52.011Z,101153.47
2022-10-17T13:07:55.242Z,101150.41
2022-10-17T13:13:08.570Z,101146.72
2022-10-17T13:18:18.543Z,101143.34
2022-10-17T13:23:31.564Z,101141.38
2022-10-17T13:28:37.134Z,101138.00
2022-10-17T13:33:42.258Z,101141.28
2022-10-17T13:38:43.980Z,101126.19
2022-10-17T13:43:46.060Z,101149.38
2022-10-17T13:48:48.705Z,101140.72
2022-10-17T13:53:50.373Z,101159.13
2022-10-17T13:58:53.209Z,101161.38
2022-10-17T14:04:07.875Z,101170.06
2022-10-17T14:09:40.116Z,101159.47
2022-10-17T14:15:09.176Z,101156.16
2022-10-17T14:25:43.376Z,101165.72
2022-10-17T14:31:02.457Z,101164.09
2022-10-17T14:36:05.465Z,101174.75
2022-10-17T14:46:37.739Z,101153.34
2022-10-17T14:51:50.645Z,101155.59
2022-10-17T14:57:14.758Z,101153.44
2022-10-17T15:02:17.073Z,101136.44
2022-10-17T15:07:19.401Z,101150.41
2022-10-17T15:12:26.726Z,101144.06
2022-10-17T15:17:30.971Z,101146.03
2022-10-17T15:22:36.515Z,101146.34
2022-10-17T15:27:38.107Z,101147.16
2022-10-17T15:32:39.710Z,101134.63
2022-10-17T15:37:42.771Z,101128.56
2022-10-17T15:42:44.401Z,101120.53
2022-10-17T15:47:54.516Z,101112.47
2022-10-17T15:52:56.084Z,101096.66
2022-10-17T15:57:57.675Z,101076.16
2022-10-17T16:02:59.273Z,101049.22
2022-10-17T16:08:00.829Z,101032.22
2022-10-17T16:13:02.448Z,101022.50
2022-10-17T16:18:06.678Z,101022.44
2022-10-17T16:23:12.503Z,101032.63
2022-10-17T16:28:14.038Z,101037.19
2022-10-17T16:33:15.601Z,101048.38
2022-10-17T16:38:17.129Z,101053.69
2022-10-17T16:43:18.680Z,101060.41
2022-10-17T16:48:20.985Z,101070.06
2022-10-17T16:53:22.868Z,101078.09
2022-10-17T16:58:27.356Z,101079.19
2022-10-17T17:03:28.953Z,101081.63
2022-10-17T17:08:30.756Z,101094.22
2022-10-17T17:13:32.280Z,101097.19
2022-10-17T17:18:34.422Z,101106.91
2022-10-17T17:23:38.827Z,101118.31
2022-10-17T17:28:41.553Z,101115.25
2022-10-17T17:33:44.033Z,101118.25
2022-10-17T17:38:47.232Z,101118.44
2022-10-17T17:43:49.420Z,101122.53
2022-10-17T17:48:52.430Z,101142.16
2022-10-17T17:53:55.089Z,101157.44
2022-10-17T17:58:59.111Z,101158.56
2022-10-17T18:04:00.738Z,101157.47
2022-10-17T18:09:02.478Z,101163.34
2022-10-17T18:14:07.638Z,101161.78
2022-10-17T18:19:11.579Z,101167.19
2022-10-17T18:24:13.133Z,101173.28
2022-10-17T18:29:14.790Z,101177.28
2022-10-17T18:34:16.331Z,101192.72
2022-10-17T18:39:18.015Z,101185.78
2022-10-17T18:44:19.809Z,101186.25
2022-10-17T18:49:23.253Z,101182.13
2022-10-17T18:54:24.921Z,101172.03
2022-10-17T18:59:26.507Z,101175.50
2022-10-17T19:04:28.082Z,101178.97
2022-10-17T19:09:29.675Z,101171.31
2022-10-17T19:14:31.339Z,101180.19
2022-10-17T19:19:32.990Z,101173.69
2022-10-17T19:24:34.527Z,101173.81
2022-10-17T19:29:36.045Z,101171.63
2022-10-17T19:34:37.885Z,101172.69
2022-10-17T19:39:39.406Z,101167.03
2022-10-17T19:44:40.992Z,101175.66
2022-10-17T19:49:46.466Z,101168.47
2022-10-17T19:54:50.672Z,101183.81
2022-10-17T19:59:55.133Z,101182.34
2022-10-17T20:05:13.946Z,101181.25
2022-10-17T20:10:19.196Z,101172.13
2022-10-17T20:15:20.784Z,101182.34
2022-10-17T20:20:22.710Z,101179.91
2022-10-17T20:25:26.710Z,101180.47
2022-10-17T20:30:28.354Z,101184.97
2022-10-17T20:35:29.884Z,101187.72
2022-10-17T20:40:35.605Z,101178.25
2022-10-17T20:45:50.629Z,101178.09
2022-10-17T20:50:53.952Z,101179.91
2022-10-17T20:56:23.017Z,101197.50
2022-10-17T21:01:26.017Z,101195.41
2022-10-17T21:06:27.687Z,101200.47
2022-10-17T21:11:30.318Z,101204.69
2022-10-17T21:16:34.449Z,101219.88
2022-10-17T21:21:39.403Z,101226.59
2022-10-17T21:26:42.441Z,101238.91
2022-10-17T21:31:44.928Z,101237.84
2022-10-17T21:36:47.161Z,101232.00
2022-10-17T21:41:48.847Z,101237.97
2022-10-17T21:46:51.326Z,101234.22
2022-10-17T21:51:53.629Z,101234.50
2022-10-17T21:56:55.371Z,101235.84
2022-10-17T22:01:57.014Z,101222.28
2022-10-17T22:06:58.628Z,101225.88
2022-10-17T22:12:00.204Z,101220.19
2022-10-17T22:17:01.784Z,101221.31
2022-10-17T22:22:03.352Z,101213.50
2022-10-17T22:27:04.906Z,101220.25
2022-10-17T22:32:06.614Z,101210.91
2022-10-17T22:37:11.039Z,101214.75
2022-10-17T22:42:12.650Z,101210.91
2022-10-17T22:47:14.273Z,101213.00
2022-10-17T22:52:15.825Z,101212.53
2022-10-17T22:57:17.378Z,101203.31
2022-10-17T23:02:18.906Z,101207.78
2022-10-17T23:07:20.488Z,101206.09
2022-10-17T23:12:22.283Z,101205.66
2022-10-17T23:17:23.803Z,101206.28
2022-10-17T23:22:25.336Z,101211.56
2022-10-17T23:27:26.900Z,101211.78
2022-10-17T23:32:28.740Z,101208.22
2022-10-17T23:37:30.814Z,101198.81
2022-10-17T23:42:32.505Z,101208.19
2022-10-17T23:47:34.253Z,101209.41
2022-10-17T23:52:35.985Z,101207.56
2022-10-17T23:57:37.624Z,101222.16
